sensor_id;sensor_type;location;lat;lon;timestamp;P1;durP1;ratioP1;P2;durP2;ratioP2
7919;SDS011;18778;47.610;9.776;2024-03-02T00:02:24;11.50;;;9.30;;
7919;SDS011;18778;47.610;9.776;2024-03-02T00:04:50;9.73;;;8.80;;
7919;SDS011;18778;47.610;9.776;2024-03-02T00:07:16;10.87;;;9.30;;
7919;SDS011;18778;47.610;9.776;2024-03-02T00:09:42;9.87;;;8.87;;
7919;SDS011;18778;47.610;9.776;2024-03-02T00:12:07;10.53;;;9.43;;
7919;SDS011;18778;47.610;9.776;2024-03-02T00:14:33;10.93;;;9.30;;
7919;SDS011;18778;47.610;9.776;2024-03-02T00:16:59;11.10;;;9.50;;
7919;SDS011;18778;47.610;9.776;2024-03-02T00:19:24;10.80;;;9.70;;
7919;SDS011;18778;47.610;9.776;2024-03-02T00:21:50;10.17;;;9.17;;
7919;SDS011;18778;47.610;9.776;2024-03-02T00:24:32;10.97;;;9.40;;
7919;SDS011;18778;47.610;9.776;2024-03-02T00:26:59;10.17;;;9.07;;
7919;SDS011;18778;47.610;9.776;2024-03-02T00:29:26;10.03;;;8.93;;
7919;SDS011;18778;47.610;9.776;2024-03-02T00:31:54;12.33;;;9.17;;
7919;SDS011;18778;47.610;9.776;2024-03-02T00:34:20;9.53;;;8.50;;
7919;SDS011;18778;47.610;9.776;2024-03-02T00:36:47;11.33;;;9.53;;
7919;SDS011;18778;47.610;9.776;2024-03-02T00:39:14;10.20;;;9.20;;
7919;SDS011;18778;47.610;9.776;2024-03-02T00:41:42;10.60;;;8.97;;
7919;SDS011;18778;47.610;9.776;2024-03-02T00:44:09;9.97;;;9.00;;
7919;SDS011;18778;47.610;9.776;2024-03-02T00:46:40;10.40;;;9.00;;
7919;SDS011;18778;47.610;9.776;2024-03-02T00:51:49;9.67;;;8.67;;
7919;SDS011;18778;47.610;9.776;2024-03-02T00:54:18;9.93;;;8.67;;
7919;SDS011;18778;47.610;9.776;2024-03-02T00:56:49;10.47;;;8.53;;
7919;SDS011;18778;47.610;9.776;2024-03-02T00:59:16;9.67;;;8.63;;
7919;SDS011;18778;47.610;9.776;2024-03-02T01:01:42;9.37;;;8.47;;
7919;SDS011;18778;47.610;9.776;2024-03-02T01:04:07;10.00;;;8.63;;
7919;SDS011;18778;47.610;9.776;2024-03-02T01:06:34;9.40;;;8.23;;
7919;SDS011;18778;47.610;9.776;2024-03-02T01:09:00;10.20;;;8.47;;
7919;SDS011;18778;47.610;9.776;2024-03-02T01:11:26;9.90;;;8.67;;
7919;SDS011;18778;47.610;9.776;2024-03-02T01:13:52;10.70;;;8.93;;
7919;SDS011;18778;47.610;9.776;2024-03-02T01:16:17;11.03;;;9.27;;
7919;SDS011;18778;47.610;9.776;2024-03-02T01:18:43;9.83;;;8.33;;
7919;SDS011;18778;47.610;9.776;2024-03-02T01:21:09;10.43;;;9.23;;
7919;SDS011;18778;47.610;9.776;2024-03-02T01:23:34;10.03;;;8.90;;
7919;SDS011;18778;47.610;9.776;2024-03-02T01:26:00;10.53;;;8.17;;
7919;SDS011;18778;47.610;9.776;2024-03-02T01:28:26;10.17;;;9.00;;
7919;SDS011;18778;47.610;9.776;2024-03-02T01:30:51;10.27;;;8.87;;
7919;SDS011;18778;47.610;9.776;2024-03-02T01:33:17;9.93;;;8.93;;
7919;SDS011;18778;47.610;9.776;2024-03-02T01:35:43;9.47;;;8.47;;
7919;SDS011;18778;47.610;9.776;2024-03-02T01:38:09;10.20;;;8.73;;
7919;SDS011;18778;47.610;9.776;2024-03-02T01:40:35;9.40;;;8.37;;
7919;SDS011;18778;47.610;9.776;2024-03-02T01:43:01;9.57;;;8.57;;
7919;SDS011;18778;47.610;9.776;2024-03-02T01:45:27;10.00;;;9.00;;
7919;SDS011;18778;47.610;9.776;2024-03-02T01:47:53;8.93;;;7.83;;
7919;SDS011;18778;47.610;9.776;2024-03-02T01:50:28;8.97;;;8.07;;
7919;SDS011;18778;47.610;9.776;2024-03-02T01:52:57;9.53;;;7.87;;
7919;SDS011;18778;47.610;9.776;2024-03-02T01:55:23;10.20;;;8.50;;
7919;SDS011;18778;47.610;9.776;2024-03-02T01:57:49;9.33;;;8.27;;
7919;SDS011;18778;47.610;9.776;2024-03-02T02:00:16;9.10;;;8.10;;
7919;SDS011;18778;47.610;9.776;2024-03-02T02:02:42;9.00;;;8.10;;
7919;SDS011;18778;47.610;9.776;2024-03-02T02:05:09;9.77;;;8.53;;
7919;SDS011;18778;47.610;9.776;2024-03-02T02:07:35;8.73;;;7.70;;
7919;SDS011;18778;47.610;9.776;2024-03-02T02:10:01;8.93;;;7.20;;
7919;SDS011;18778;47.610;9.776;2024-03-02T02:12:27;8.20;;;7.40;;
7919;SDS011;18778;47.610;9.776;2024-03-02T02:14:52;8.63;;;7.73;;
7919;SDS011;18778;47.610;9.776;2024-03-02T02:17:18;9.43;;;8.47;;
7919;SDS011;18778;47.610;9.776;2024-03-02T02:19:44;9.10;;;7.97;;
7919;SDS011;18778;47.610;9.776;2024-03-02T02:22:10;9.37;;;7.83;;
7919;SDS011;18778;47.610;9.776;2024-03-02T02:24:39;8.50;;;7.60;;
7919;SDS011;18778;47.610;9.776;2024-03-02T02:27:08;8.33;;;7.47;;
7919;SDS011;18778;47.610;9.776;2024-03-02T02:29:34;8.07;;;7.23;;
7919;SDS011;18778;47.610;9.776;2024-03-02T02:32:00;8.90;;;7.27;;
7919;SDS011;18778;47.610;9.776;2024-03-02T02:34:26;8.73;;;7.70;;
7919;SDS011;18778;47.610;9.776;2024-03-02T02:36:51;8.40;;;7.33;;
7919;SDS011;18778;47.610;9.776;2024-03-02T02:39:20;9.23;;;8.00;;
7919;SDS011;18778;47.610;9.776;2024-03-02T02:41:47;8.07;;;7.23;;
7919;SDS011;18778;47.610;9.776;2024-03-02T02:44:13;7.77;;;6.97;;
7919;SDS011;18778;47.610;9.776;2024-03-02T02:46:39;7.67;;;6.87;;
7919;SDS011;18778;47.610;9.776;2024-03-02T02:49:05;8.63;;;7.33;;
7919;SDS011;18778;47.610;9.776;2024-03-02T02:51:30;8.57;;;7.50;;
7919;SDS011;18778;47.610;9.776;2024-03-02T02:53:57;9.73;;;8.37;;
7919;SDS011;18778;47.610;9.776;2024-03-02T02:56:22;10.03;;;8.53;;
7919;SDS011;18778;47.610;9.776;2024-03-02T02:58:48;10.40;;;8.50;;
7919;SDS011;18778;47.610;9.776;2024-03-02T03:01:14;9.73;;;8.13;;
7919;SDS011;18778;47.610;9.776;2024-03-02T03:03:42;10.87;;;8.93;;
7919;SDS011;18778;47.610;9.776;2024-03-02T03:06:09;10.37;;;8.80;;
7919;SDS011;18778;47.610;9.776;2024-03-02T03:08:35;9.40;;;8.50;;
7919;SDS011;18778;47.610;9.776;2024-03-02T03:11:00;10.70;;;8.73;;
7919;SDS011;18778;47.610;9.776;2024-03-02T03:13:26;10.20;;;8.73;;
7919;SDS011;18778;47.610;9.776;2024-03-02T03:15:52;11.57;;;9.47;;
7919;SDS011;18778;47.610;9.776;2024-03-02T03:18:17;12.50;;;10.10;;
7919;SDS011;18778;47.610;9.776;2024-03-02T03:20:43;11.63;;;9.50;;
7919;SDS011;18778;47.610;9.776;2024-03-02T03:23:09;14.53;;;10.33;;
7919;SDS011;18778;47.610;9.776;2024-03-02T03:25:40;12.13;;;10.00;;
7919;SDS011;18778;47.610;9.776;2024-03-02T03:28:06;15.73;;;11.43;;
7919;SDS011;18778;47.610;9.776;2024-03-02T03:30:31;13.23;;;10.87;;
7919;SDS011;18778;47.610;9.776;2024-03-02T03:32:57;15.83;;;11.60;;
7919;SDS011;18778;47.610;9.776;2024-03-02T03:35:23;18.23;;;12.10;;
7919;SDS011;18778;47.610;9.776;2024-03-02T03:37:48;17.20;;;12.90;;
7919;SDS011;18778;47.610;9.776;2024-03-02T03:40:14;20.03;;;13.90;;
7919;SDS011;18778;47.610;9.776;2024-03-02T03:42:39;22.53;;;15.03;;
7919;SDS011;18778;47.610;9.776;2024-03-02T03:45:06;28.23;;;17.20;;
7919;SDS011;18778;47.610;9.776;2024-03-02T03:47:32;22.63;;;15.10;;
7919;SDS011;18778;47.610;9.776;2024-03-02T03:49:57;28.63;;;18.17;;
7919;SDS011;18778;47.610;9.776;2024-03-02T03:52:23;30.67;;;19.33;;
7919;SDS011;18778;47.610;9.776;2024-03-02T03:54:49;33.83;;;20.90;;
7919;SDS011;18778;47.610;9.776;2024-03-02T03:57:15;33.37;;;19.23;;
7919;SDS011;18778;47.610;9.776;2024-03-02T03:59:41;28.93;;;19.00;;
7919;SDS011;18778;47.610;9.776;2024-03-02T04:02:07;29.17;;;17.50;;
7919;SDS011;18778;47.610;9.776;2024-03-02T04:04:33;24.97;;;16.77;;
7919;SDS011;18778;47.610;9.776;2024-03-02T04:06:59;25.80;;;17.13;;
7919;SDS011;18778;47.610;9.776;2024-03-02T04:09:25;24.20;;;16.57;;
7919;SDS011;18778;47.610;9.776;2024-03-02T04:11:50;25.87;;;16.20;;
7919;SDS011;18778;47.610;9.776;2024-03-02T04:14:16;29.07;;;17.40;;
7919;SDS011;18778;47.610;9.776;2024-03-02T04:16:42;25.83;;;16.87;;
7919;SDS011;18778;47.610;9.776;2024-03-02T04:19:08;25.60;;;16.17;;
7919;SDS011;18778;47.610;9.776;2024-03-02T04:21:33;23.53;;;16.37;;
7919;SDS011;18778;47.610;9.776;2024-03-02T04:23:59;24.00;;;15.47;;
7919;SDS011;18778;47.610;9.776;2024-03-02T04:26:27;20.20;;;14.03;;
7919;SDS011;18778;47.610;9.776;2024-03-02T04:28:53;19.23;;;14.07;;
7919;SDS011;18778;47.610;9.776;2024-03-02T04:31:19;22.27;;;15.53;;
7919;SDS011;18778;47.610;9.776;2024-03-02T04:33:45;22.57;;;14.67;;
7919;SDS011;18778;47.610;9.776;2024-03-02T04:36:11;21.83;;;15.20;;
7919;SDS011;18778;47.610;9.776;2024-03-02T04:38:37;20.07;;;13.33;;
7919;SDS011;18778;47.610;9.776;2024-03-02T04:41:04;21.97;;;14.90;;
7919;SDS011;18778;47.610;9.776;2024-03-02T04:43:33;21.57;;;14.50;;
7919;SDS011;18778;47.610;9.776;2024-03-02T04:45:59;25.40;;;16.53;;
7919;SDS011;18778;47.610;9.776;2024-03-02T04:48:25;28.33;;;16.00;;
7919;SDS011;18778;47.610;9.776;2024-03-02T04:50:51;25.23;;;16.27;;
7919;SDS011;18778;47.610;9.776;2024-03-02T04:53:16;26.30;;;16.43;;
7919;SDS011;18778;47.610;9.776;2024-03-02T04:55:42;27.97;;;15.70;;
7919;SDS011;18778;47.610;9.776;2024-03-02T04:58:08;24.30;;;15.57;;
7919;SDS011;18778;47.610;9.776;2024-03-02T05:00:34;27.50;;;16.93;;
7919;SDS011;18778;47.610;9.776;2024-03-02T05:03:00;25.57;;;16.03;;
7919;SDS011;18778;47.610;9.776;2024-03-02T05:05:26;28.23;;;17.10;;
7919;SDS011;18778;47.610;9.776;2024-03-02T05:07:51;27.43;;;16.00;;
7919;SDS011;18778;47.610;9.776;2024-03-02T05:10:17;26.77;;;17.07;;
7919;SDS011;18778;47.610;9.776;2024-03-02T05:12:43;27.00;;;16.17;;
7919;SDS011;18778;47.610;9.776;2024-03-02T05:15:09;26.10;;;16.67;;
7919;SDS011;18778;47.610;9.776;2024-03-02T05:17:38;26.27;;;15.90;;
7919;SDS011;18778;47.610;9.776;2024-03-02T05:20:08;23.10;;;15.97;;
7919;SDS011;18778;47.610;9.776;2024-03-02T05:22:34;21.93;;;14.80;;
7919;SDS011;18778;47.610;9.776;2024-03-02T05:25:00;22.87;;;15.13;;
7919;SDS011;18778;47.610;9.776;2024-03-02T05:27:29;25.43;;;15.63;;
7919;SDS011;18778;47.610;9.776;2024-03-02T05:29:55;27.80;;;16.43;;
7919;SDS011;18778;47.610;9.776;2024-03-02T05:32:21;22.47;;;15.37;;
7919;SDS011;18778;47.610;9.776;2024-03-02T05:34:46;24.47;;;15.63;;
7919;SDS011;18778;47.610;9.776;2024-03-02T05:37:12;24.57;;;16.17;;
7919;SDS011;18778;47.610;9.776;2024-03-02T05:39:37;26.73;;;16.43;;
7919;SDS011;18778;47.610;9.776;2024-03-02T05:42:03;26.87;;;16.67;;
7919;SDS011;18778;47.610;9.776;2024-03-02T05:44:29;24.43;;;15.80;;
7919;SDS011;18778;47.610;9.776;2024-03-02T05:46:55;24.50;;;17.10;;
7919;SDS011;18778;47.610;9.776;2024-03-02T05:49:21;24.73;;;16.47;;
7919;SDS011;18778;47.610;9.776;2024-03-02T05:51:47;24.00;;;14.73;;
7919;SDS011;18778;47.610;9.776;2024-03-02T05:54:13;20.93;;;14.57;;
7919;SDS011;18778;47.610;9.776;2024-03-02T05:56:38;24.77;;;15.13;;
7919;SDS011;18778;47.610;9.776;2024-03-02T05:59:04;23.00;;;14.10;;
7919;SDS011;18778;47.610;9.776;2024-03-02T06:01:39;20.00;;;13.50;;
7919;SDS011;18778;47.610;9.776;2024-03-02T06:04:05;20.07;;;13.10;;
7919;SDS011;18778;47.610;9.776;2024-03-02T06:06:31;19.73;;;12.57;;
7919;SDS011;18778;47.610;9.776;2024-03-02T06:09:03;18.00;;;12.60;;
7919;SDS011;18778;47.610;9.776;2024-03-02T06:11:36;16.80;;;11.87;;
7919;SDS011;18778;47.610;9.776;2024-03-02T06:14:02;18.87;;;11.63;;
7919;SDS011;18778;47.610;9.776;2024-03-02T06:16:31;16.07;;;11.47;;
7919;SDS011;18778;47.610;9.776;2024-03-02T06:18:57;16.03;;;11.13;;
7919;SDS011;18778;47.610;9.776;2024-03-02T06:21:23;16.80;;;11.13;;
7919;SDS011;18778;47.610;9.776;2024-03-02T06:23:49;15.50;;;11.50;;
7919;SDS011;18778;47.610;9.776;2024-03-02T06:26:15;16.73;;;12.70;;
7919;SDS011;18778;47.610;9.776;2024-03-02T06:28:41;19.50;;;14.97;;
7919;SDS011;18778;47.610;9.776;2024-03-02T06:31:07;36.93;;;24.30;;
7919;SDS011;18778;47.610;9.776;2024-03-02T06:33:34;41.93;;;27.27;;
7919;SDS011;18778;47.610;9.776;2024-03-02T06:35:59;30.93;;;19.90;;
7919;SDS011;18778;47.610;9.776;2024-03-02T06:38:25;29.90;;;18.10;;
7919;SDS011;18778;47.610;9.776;2024-03-02T06:40:51;20.63;;;14.90;;
7919;SDS011;18778;47.610;9.776;2024-03-02T06:43:17;14.10;;;10.43;;
7919;SDS011;18778;47.610;9.776;2024-03-02T06:45:43;16.73;;;12.07;;
7919;SDS011;18778;47.610;9.776;2024-03-02T06:48:09;16.97;;;10.87;;
7919;SDS011;18778;47.610;9.776;2024-03-02T06:50:34;16.73;;;11.93;;
7919;SDS011;18778;47.610;9.776;2024-03-02T06:53:00;16.83;;;11.67;;
7919;SDS011;18778;47.610;9.776;2024-03-02T06:55:25;14.07;;;9.73;;
7919;SDS011;18778;47.610;9.776;2024-03-02T06:57:51;13.50;;;10.27;;
7919;SDS011;18778;47.610;9.776;2024-03-02T07:00:17;12.83;;;10.03;;
7919;SDS011;18778;47.610;9.776;2024-03-02T07:02:45;13.40;;;9.67;;
7919;SDS011;18778;47.610;9.776;2024-03-02T07:05:11;11.63;;;9.03;;
7919;SDS011;18778;47.610;9.776;2024-03-02T07:07:37;12.30;;;9.37;;
7919;SDS011;18778;47.610;9.776;2024-03-02T07:10:03;12.70;;;9.73;;
7919;SDS011;18778;47.610;9.776;2024-03-02T07:12:30;11.00;;;9.20;;
7919;SDS011;18778;47.610;9.776;2024-03-02T07:14:56;11.47;;;9.00;;
7919;SDS011;18778;47.610;9.776;2024-03-02T07:17:28;11.83;;;8.30;;
7919;SDS011;18778;47.610;9.776;2024-03-02T07:19:54;9.10;;;7.73;;
7919;SDS011;18778;47.610;9.776;2024-03-02T07:22:20;10.80;;;8.70;;
7919;SDS011;18778;47.610;9.776;2024-03-02T07:24:46;8.13;;;6.90;;
7919;SDS011;18778;47.610;9.776;2024-03-02T07:27:12;8.60;;;7.63;;
7919;SDS011;18778;47.610;9.776;2024-03-02T07:29:41;9.40;;;7.27;;
7919;SDS011;18778;47.610;9.776;2024-03-02T07:32:07;8.17;;;7.37;;
7919;SDS011;18778;47.610;9.776;2024-03-02T07:34:33;8.23;;;7.20;;
7919;SDS011;18778;47.610;9.776;2024-03-02T07:36:59;9.27;;;7.67;;
7919;SDS011;18778;47.610;9.776;2024-03-02T07:39:24;7.57;;;6.80;;
7919;SDS011;18778;47.610;9.776;2024-03-02T07:41:50;7.30;;;6.60;;
7919;SDS011;18778;47.610;9.776;2024-03-02T07:44:16;7.33;;;6.63;;
7919;SDS011;18778;47.610;9.776;2024-03-02T07:46:44;8.57;;;6.60;;
7919;SDS011;18778;47.610;9.776;2024-03-02T07:49:11;9.13;;;6.87;;
7919;SDS011;18778;47.610;9.776;2024-03-02T07:51:38;8.00;;;7.17;;
7919;SDS011;18778;47.610;9.776;2024-03-02T07:54:04;7.47;;;6.77;;
7919;SDS011;18778;47.610;9.776;2024-03-02T07:56:30;7.90;;;7.10;;
7919;SDS011;18778;47.610;9.776;2024-03-02T07:58:56;7.43;;;6.63;;
7919;SDS011;18778;47.610;9.776;2024-03-02T08:01:25;8.20;;;7.30;;
7919;SDS011;18778;47.610;9.776;2024-03-02T08:03:51;6.70;;;6.00;;
7919;SDS011;18778;47.610;9.776;2024-03-02T08:06:17;6.27;;;5.67;;
7919;SDS011;18778;47.610;9.776;2024-03-02T08:08:45;8.07;;;6.17;;
7919;SDS011;18778;47.610;9.776;2024-03-02T08:11:11;8.50;;;6.03;;
7919;SDS011;18778;47.610;9.776;2024-03-02T08:13:37;6.97;;;6.27;;
7919;SDS011;18778;47.610;9.776;2024-03-02T08:16:03;6.10;;;5.30;;
7919;SDS011;18778;47.610;9.776;2024-03-02T08:18:31;5.20;;;4.80;;
7919;SDS011;18778;47.610;9.776;2024-03-02T08:20:57;5.67;;;4.90;;
7919;SDS011;18778;47.610;9.776;2024-03-02T08:23:23;5.20;;;4.73;;
7919;SDS011;18778;47.610;9.776;2024-03-02T08:25:48;4.70;;;4.30;;
7919;SDS011;18778;47.610;9.776;2024-03-02T08:28:14;4.90;;;4.43;;
7919;SDS011;18778;47.610;9.776;2024-03-02T08:30:40;5.90;;;4.90;;
7919;SDS011;18778;47.610;9.776;2024-03-02T08:33:05;5.60;;;5.10;;
7919;SDS011;18778;47.610;9.776;2024-03-02T08:35:31;5.07;;;4.67;;
7919;SDS011;18778;47.610;9.776;2024-03-02T08:38:00;5.87;;;5.30;;
7919;SDS011;18778;47.610;9.776;2024-03-02T08:40:26;5.33;;;4.83;;
7919;SDS011;18778;47.610;9.776;2024-03-02T08:42:52;5.03;;;4.63;;
7919;SDS011;18778;47.610;9.776;2024-03-02T08:45:18;4.60;;;4.20;;
7919;SDS011;18778;47.610;9.776;2024-03-02T08:47:48;4.37;;;4.07;;
7919;SDS011;18778;47.610;9.776;2024-03-02T08:50:13;5.17;;;4.03;;
7919;SDS011;18778;47.610;9.776;2024-03-02T08:52:39;4.43;;;4.13;;
7919;SDS011;18778;47.610;9.776;2024-03-02T08:55:05;4.33;;;3.97;;
7919;SDS011;18778;47.610;9.776;2024-03-02T08:57:32;5.50;;;5.00;;
7919;SDS011;18778;47.610;9.776;2024-03-02T08:59:58;5.00;;;4.50;;
7919;SDS011;18778;47.610;9.776;2024-03-02T09:02:23;5.17;;;4.67;;
7919;SDS011;18778;47.610;9.776;2024-03-02T09:04:49;5.40;;;4.40;;
7919;SDS011;18778;47.610;9.776;2024-03-02T09:07:15;5.17;;;4.67;;
7919;SDS011;18778;47.610;9.776;2024-03-02T09:09:40;3.93;;;3.63;;
7919;SDS011;18778;47.610;9.776;2024-03-02T09:12:06;5.97;;;4.47;;
7919;SDS011;18778;47.610;9.776;2024-03-02T09:14:32;4.87;;;4.37;;
7919;SDS011;18778;47.610;9.776;2024-03-02T09:16:58;5.60;;;5.10;;
7919;SDS011;18778;47.610;9.776;2024-03-02T09:19:23;6.27;;;5.67;;
7919;SDS011;18778;47.610;9.776;2024-03-02T09:21:49;6.37;;;5.70;;
7919;SDS011;18778;47.610;9.776;2024-03-02T09:24:15;5.70;;;5.20;;
7919;SDS011;18778;47.610;9.776;2024-03-02T09:26:40;5.70;;;5.20;;
7919;SDS011;18778;47.610;9.776;2024-03-02T09:29:06;5.33;;;4.80;;
7919;SDS011;18778;47.610;9.776;2024-03-02T09:31:32;5.50;;;5.00;;
7919;SDS011;18778;47.610;9.776;2024-03-02T09:33:57;5.27;;;4.77;;
7919;SDS011;18778;47.610;9.776;2024-03-02T09:36:23;5.83;;;5.33;;
7919;SDS011;18778;47.610;9.776;2024-03-02T09:38:48;8.97;;;4.60;;
7919;SDS011;18778;47.610;9.776;2024-03-02T09:41:14;4.93;;;4.50;;
7919;SDS011;18778;47.610;9.776;2024-03-02T09:43:40;5.13;;;4.63;;
7919;SDS011;18778;47.610;9.776;2024-03-02T09:46:09;5.67;;;4.07;;
7919;SDS011;18778;47.610;9.776;2024-03-02T09:48:35;5.30;;;4.80;;
7919;SDS011;18778;47.610;9.776;2024-03-02T09:51:01;18.40;;;8.67;;
7919;SDS011;18778;47.610;9.776;2024-03-02T09:53:31;6.63;;;4.70;;
7919;SDS011;18778;47.610;9.776;2024-03-02T09:55:58;64.37;;;28.10;;
7919;SDS011;18778;47.610;9.776;2024-03-02T09:58:24;22.50;;;13.50;;
7919;SDS011;18778;47.610;9.776;2024-03-02T10:00:50;5.07;;;4.20;;
7919;SDS011;18778;47.610;9.776;2024-03-02T10:03:16;5.23;;;3.70;;
7919;SDS011;18778;47.610;9.776;2024-03-02T10:05:43;3.70;;;3.40;;
7919;SDS011;18778;47.610;9.776;2024-03-02T10:08:09;4.23;;;3.83;;
7919;SDS011;18778;47.610;9.776;2024-03-02T10:10:38;4.30;;;2.87;;
7919;SDS011;18778;47.610;9.776;2024-03-02T10:13:09;3.33;;;2.90;;
7919;SDS011;18778;47.610;9.776;2024-03-02T10:15:36;2.83;;;2.63;;
7919;SDS011;18778;47.610;9.776;2024-03-02T10:18:09;3.17;;;2.97;;
7919;SDS011;18778;47.610;9.776;2024-03-02T10:20:41;4.37;;;1.90;;
7919;SDS011;18778;47.610;9.776;2024-03-02T10:23:10;1.80;;;1.70;;
7919;SDS011;18778;47.610;9.776;2024-03-02T10:25:39;1.40;;;1.37;;
7919;SDS011;18778;47.610;9.776;2024-03-02T10:28:06;1.90;;;1.70;;
7919;SDS011;18778;47.610;9.776;2024-03-02T10:30:32;1.40;;;1.30;;
7919;SDS011;18778;47.610;9.776;2024-03-02T10:32:58;1.10;;;1.10;;
7919;SDS011;18778;47.610;9.776;2024-03-02T10:35:25;0.80;;;0.80;;
7919;SDS011;18778;47.610;9.776;2024-03-02T10:37:54;1.37;;;1.20;;
7919;SDS011;18778;47.610;9.776;2024-03-02T10:40:23;1.00;;;1.00;;
7919;SDS011;18778;47.610;9.776;2024-03-02T10:42:52;1.30;;;1.13;;
7919;SDS011;18778;47.610;9.776;2024-03-02T10:45:19;2.93;;;1.10;;
7919;SDS011;18778;47.610;9.776;2024-03-02T10:47:47;1.03;;;1.03;;
7919;SDS011;18778;47.610;9.776;2024-03-02T10:50:13;1.50;;;1.20;;
7919;SDS011;18778;47.610;9.776;2024-03-02T10:52:38;1.60;;;1.40;;
7919;SDS011;18778;47.610;9.776;2024-03-02T10:55:05;1.40;;;1.10;;
7919;SDS011;18778;47.610;9.776;2024-03-02T10:57:40;1.17;;;1.10;;
7919;SDS011;18778;47.610;9.776;2024-03-02T11:00:20;0.80;;;0.80;;
7919;SDS011;18778;47.610;9.776;2024-03-02T11:02:52;0.73;;;0.73;;
7919;SDS011;18778;47.610;9.776;2024-03-02T11:05:24;0.80;;;0.80;;
7919;SDS011;18778;47.610;9.776;2024-03-02T11:07:57;0.70;;;0.70;;
7919;SDS011;18778;47.610;9.776;2024-03-02T11:10:28;0.63;;;0.63;;
7919;SDS011;18778;47.610;9.776;2024-03-02T11:13:04;0.80;;;0.80;;
7919;SDS011;18778;47.610;9.776;2024-03-02T11:15:34;0.70;;;0.70;;
7919;SDS011;18778;47.610;9.776;2024-03-02T11:18:02;0.80;;;0.70;;
7919;SDS011;18778;47.610;9.776;2024-03-02T11:20:33;0.83;;;0.83;;
7919;SDS011;18778;47.610;9.776;2024-03-02T11:23:04;0.70;;;0.70;;
7919;SDS011;18778;47.610;9.776;2024-03-02T11:25:33;0.77;;;0.60;;
7919;SDS011;18778;47.610;9.776;2024-03-02T11:27:59;0.63;;;0.63;;
7919;SDS011;18778;47.610;9.776;2024-03-02T11:33:01;0.70;;;0.70;;
7919;SDS011;18778;47.610;9.776;2024-03-02T11:35:34;0.73;;;0.73;;
7919;SDS011;18778;47.610;9.776;2024-03-02T11:38:01;4.40;;;0.60;;
7919;SDS011;18778;47.610;9.776;2024-03-02T11:40:28;0.97;;;0.97;;
7919;SDS011;18778;47.610;9.776;2024-03-02T11:42:55;5.20;;;0.87;;
7919;SDS011;18778;47.610;9.776;2024-03-02T11:45:24;0.93;;;0.70;;
7919;SDS011;18778;47.610;9.776;2024-03-02T11:47:51;0.83;;;0.80;;
7919;SDS011;18778;47.610;9.776;2024-03-02T11:50:29;0.60;;;0.60;;
7919;SDS011;18778;47.610;9.776;2024-03-02T11:52:58;0.60;;;0.60;;
7919;SDS011;18778;47.610;9.776;2024-03-02T11:55:25;0.60;;;0.60;;
7919;SDS011;18778;47.610;9.776;2024-03-02T11:57:52;0.70;;;0.70;;
7919;SDS011;18778;47.610;9.776;2024-03-02T12:00:18;1.27;;;0.87;;
7919;SDS011;18778;47.610;9.776;2024-03-02T12:02:47;0.70;;;0.70;;
7919;SDS011;18778;47.610;9.776;2024-03-02T12:05:29;0.60;;;0.60;;
7919;SDS011;18778;47.610;9.776;2024-03-02T12:08:02;1.23;;;0.80;;
7919;SDS011;18778;47.610;9.776;2024-03-02T12:10:29;3.60;;;0.70;;
7919;SDS011;18778;47.610;9.776;2024-03-02T12:12:58;1.60;;;1.50;;
7919;SDS011;18778;47.610;9.776;2024-03-02T12:15:28;0.80;;;0.80;;
7919;SDS011;18778;47.610;9.776;2024-03-02T12:17:56;1.30;;;1.30;;
7919;SDS011;18778;47.610;9.776;2024-03-02T12:20:23;0.80;;;0.80;;
7919;SDS011;18778;47.610;9.776;2024-03-02T12:22:50;1.40;;;1.40;;
7919;SDS011;18778;47.610;9.776;2024-03-02T12:25:17;2.50;;;1.73;;
7919;SDS011;18778;47.610;9.776;2024-03-02T12:27:47;1.87;;;1.40;;
7919;SDS011;18778;47.610;9.776;2024-03-02T12:30:16;1.03;;;0.80;;
7919;SDS011;18778;47.610;9.776;2024-03-02T12:32:42;1.13;;;1.03;;
7919;SDS011;18778;47.610;9.776;2024-03-02T12:35:09;0.83;;;0.83;;
7919;SDS011;18778;47.610;9.776;2024-03-02T12:37:42;0.90;;;0.90;;
7919;SDS011;18778;47.610;9.776;2024-03-02T12:40:12;0.83;;;0.70;;
7919;SDS011;18778;47.610;9.776;2024-03-02T12:42:38;0.90;;;0.77;;
7919;SDS011;18778;47.610;9.776;2024-03-02T12:45:05;1.30;;;1.20;;
7919;SDS011;18778;47.610;9.776;2024-03-02T12:47:31;2.00;;;1.90;;
7919;SDS011;18778;47.610;9.776;2024-03-02T12:49:58;2.10;;;2.00;;
7919;SDS011;18778;47.610;9.776;2024-03-02T12:52:24;2.67;;;2.47;;
7919;SDS011;18778;47.610;9.776;2024-03-02T12:54:49;5.37;;;3.30;;
7919;SDS011;18778;47.610;9.776;2024-03-02T12:57:18;2.67;;;2.47;;
7919;SDS011;18778;47.610;9.776;2024-03-02T12:59:47;2.70;;;2.50;;
7919;SDS011;18778;47.610;9.776;2024-03-02T13:02:19;3.60;;;2.53;;
7919;SDS011;18778;47.610;9.776;2024-03-02T13:04:51;3.93;;;3.10;;
7919;SDS011;18778;47.610;9.776;2024-03-02T13:07:18;4.77;;;3.20;;
7919;SDS011;18778;47.610;9.776;2024-03-02T13:09:45;3.17;;;2.97;;
7919;SDS011;18778;47.610;9.776;2024-03-02T13:12:11;3.60;;;3.30;;
7919;SDS011;18778;47.610;9.776;2024-03-02T13:14:36;5.80;;;3.83;;
7919;SDS011;18778;47.610;9.776;2024-03-02T13:17:02;3.77;;;3.37;;
7919;SDS011;18778;47.610;9.776;2024-03-02T13:19:30;3.90;;;3.60;;
7919;SDS011;18778;47.610;9.776;2024-03-02T13:21:56;3.43;;;3.13;;
7919;SDS011;18778;47.610;9.776;2024-03-02T13:24:22;4.13;;;3.80;;
7919;SDS011;18778;47.610;9.776;2024-03-02T13:26:50;3.93;;;3.37;;
7919;SDS011;18778;47.610;9.776;2024-03-02T13:29:20;3.03;;;2.67;;
7919;SDS011;18778;47.610;9.776;2024-03-02T13:31:46;3.50;;;3.30;;
7919;SDS011;18778;47.610;9.776;2024-03-02T13:34:11;2.87;;;2.67;;
7919;SDS011;18778;47.610;9.776;2024-03-02T13:36:37;2.80;;;2.60;;
7919;SDS011;18778;47.610;9.776;2024-03-02T13:39:03;3.40;;;3.10;;
7919;SDS011;18778;47.610;9.776;2024-03-02T13:41:35;2.77;;;2.57;;
7919;SDS011;18778;47.610;9.776;2024-03-02T13:44:01;3.20;;;2.90;;
7919;SDS011;18778;47.610;9.776;2024-03-02T13:46:26;3.10;;;2.80;;
7919;SDS011;18778;47.610;9.776;2024-03-02T13:48:53;3.90;;;3.40;;
7919;SDS011;18778;47.610;9.776;2024-03-02T13:51:19;2.87;;;2.67;;
7919;SDS011;18778;47.610;9.776;2024-03-02T13:53:45;3.37;;;2.93;;
7919;SDS011;18778;47.610;9.776;2024-03-02T13:56:11;8.17;;;4.50;;
7919;SDS011;18778;47.610;9.776;2024-03-02T13:58:37;5.93;;;5.30;;
7919;SDS011;18778;47.610;9.776;2024-03-02T14:01:02;4.23;;;3.57;;
7919;SDS011;18778;47.610;9.776;2024-03-02T14:03:30;3.40;;;3.10;;
7919;SDS011;18778;47.610;9.776;2024-03-02T14:05:55;4.03;;;2.80;;
7919;SDS011;18778;47.610;9.776;2024-03-02T14:08:21;2.90;;;2.70;;
7919;SDS011;18778;47.610;9.776;2024-03-02T14:10:47;2.70;;;2.50;;
7919;SDS011;18778;47.610;9.776;2024-03-02T14:13:12;3.30;;;2.67;;
7919;SDS011;18778;47.610;9.776;2024-03-02T14:15:38;2.60;;;1.67;;
7919;SDS011;18778;47.610;9.776;2024-03-02T14:18:04;2.27;;;1.60;;
7919;SDS011;18778;47.610;9.776;2024-03-02T14:20:30;2.53;;;1.40;;
7919;SDS011;18778;47.610;9.776;2024-03-02T14:22:57;1.50;;;1.40;;
7919;SDS011;18778;47.610;9.776;2024-03-02T14:25:24;2.87;;;1.97;;
7919;SDS011;18778;47.610;9.776;2024-03-02T14:27:50;2.00;;;1.30;;
7919;SDS011;18778;47.610;9.776;2024-03-02T14:30:16;1.43;;;1.00;;
7919;SDS011;18778;47.610;9.776;2024-03-02T14:32:41;2.33;;;1.40;;
7919;SDS011;18778;47.610;9.776;2024-03-02T14:35:07;1.37;;;1.10;;
7919;SDS011;18778;47.610;9.776;2024-03-02T14:37:36;0.90;;;0.90;;
7919;SDS011;18778;47.610;9.776;2024-03-02T14:40:02;1.13;;;1.10;;
7919;SDS011;18778;47.610;9.776;2024-03-02T14:42:31;0.70;;;0.70;;
7919;SDS011;18778;47.610;9.776;2024-03-02T14:44:57;1.40;;;0.63;;
7919;SDS011;18778;47.610;9.776;2024-03-02T14:47:22;2.30;;;1.07;;
7919;SDS011;18778;47.610;9.776;2024-03-02T14:49:49;1.27;;;1.00;;
7919;SDS011;18778;47.610;9.776;2024-03-02T14:52:15;1.93;;;0.90;;
7919;SDS011;18778;47.610;9.776;2024-03-02T14:54:42;4.93;;;1.00;;
7919;SDS011;18778;47.610;9.776;2024-03-02T14:57:08;2.83;;;1.10;;